sensor_id;sensor_type;location;lat;lon;timestamp;pressure;altitude;pressure_sealevel;temperature;humidity
69245;BME280;56357;52.304;4.870;2023-11-25T00:00:49;101580.66;;;17.38;56.59
69245;BME280;56357;52.304;4.870;2023-11-25T00:03:15;101588.75;;;17.35;56.51
69245;BME280;56357;52.304;4.870;2023-11-25T00:05:42;101583.34;;;17.28;56.63
69245;BME280;56357;52.304;4.870;2023-11-25T00:08:08;101579.75;;;17.33;56.94
69245;BME280;56357;52.304;4.870;2023-11-25T00:10:35;101576.47;;;17.19;56.28
69245;BME280;56357;52.304;4.870;2023-11-25T00:13:02;101572.47;;;17.32;56.50
69245;BME280;56357;52.304;4.870;2023-11-25T00:15:30;101576.13;;;17.32;56.16
69245;BME280;56357;52.304;4.870;2023-11-25T00:17:57;101565.63;;;17.23;56.14
69245;BME280;56357;52.304;4.870;2023-11-25T00:20:24;101563.03;;;17.38;56.71
69245;BME280;56357;52.304;4.870;2023-11-25T00:22:50;101561.56;;;17.14;56.73
69245;BME280;56357;52.304;4.870;2023-11-25T00:25:17;101560.97;;;17.12;56.96
69245;BME280;56357;52.304;4.870;2023-11-25T00:27:44;101568.78;;;17.10;56.48
69245;BME280;56357;52.304;4.870;2023-11-25T00:30:12;101573.88;;;17.13;56.38
69245;BME280;56357;52.304;4.870;2023-11-25T00:32:39;101569.78;;;17.20;56.73
69245;BME280;56357;52.304;4.870;2023-11-25T00:35:07;101573.00;;;17.12;56.62
69245;BME280;56357;52.304;4.870;2023-11-25T00:37:37;101569.31;;;17.07;56.62
69245;BME280;56357;52.304;4.870;2023-11-25T00:40:05;101569.31;;;17.07;56.93
69245;BME280;56357;52.304;4.870;2023-11-25T00:42:34;101571.22;;;17.23;56.28
69245;BME280;56357;52.304;4.870;2023-11-25T00:45:01;101575.56;;;17.14;57.09
69245;BME280;56357;52.304;4.870;2023-11-25T00:47:28;101576.72;;;17.18;56.31
69245;BME280;56357;52.304;4.870;2023-11-25T00:49:56;101570.38;;;17.06;57.27
69245;BME280;56357;52.304;4.870;2023-11-25T00:52:22;101578.03;;;17.10;56.82
69245;BME280;56357;52.304;4.870;2023-11-25T00:54:49;101577.59;;;17.18;56.64
69245;BME280;56357;52.304;4.870;2023-11-25T00:57:15;101587.31;;;16.94;57.30
69245;BME280;56357;52.304;4.870;2023-11-25T00:59:41;101584.38;;;17.06;56.57
69245;BME280;56357;52.304;4.870;2023-11-25T01:02:08;101584.97;;;17.08;56.00
69245;BME280;56357;52.304;4.870;2023-11-25T01:04:34;101587.78;;;17.08;56.22
69245;BME280;56357;52.304;4.870;2023-11-25T01:07:02;101579.38;;;17.08;55.92
69245;BME280;56357;52.304;4.870;2023-11-25T01:09:28;101581.25;;;17.02;56.79
69245;BME280;56357;52.304;4.870;2023-11-25T01:11:56;101584.97;;;17.08;56.05
69245;BME280;56357;52.304;4.870;2023-11-25T01:14:22;101587.63;;;16.98;56.45
69245;BME280;56357;52.304;4.870;2023-11-25T01:16:51;101605.63;;;17.02;56.13
69245;BME280;56357;52.304;4.870;2023-11-25T01:19:18;101590.50;;;17.03;56.45
69245;BME280;56357;52.304;4.870;2023-11-25T01:21:45;101592.44;;;17.02;56.18
69245;BME280;56357;52.304;4.870;2023-11-25T01:24:11;101588.97;;;16.95;55.81
69245;BME280;56357;52.304;4.870;2023-11-25T01:26:38;101606.44;;;16.86;56.43
69245;BME280;56357;52.304;4.870;2023-11-25T01:29:04;101594.91;;;16.99;55.89
69245;BME280;56357;52.304;4.870;2023-11-25T01:31:32;101604.09;;;16.94;56.17
69245;BME280;56357;52.304;4.870;2023-11-25T01:33:59;101608.59;;;16.79;56.34
69245;BME280;56357;52.304;4.870;2023-11-25T01:36:26;101604.22;;;17.04;55.69
69245;BME280;56357;52.304;4.870;2023-11-25T01:38:53;101597.28;;;17.07;55.97
69245;BME280;56357;52.304;4.870;2023-11-25T01:41:19;101597.31;;;16.90;56.45
69245;BME280;56357;52.304;4.870;2023-11-25T01:43:46;101591.28;;;16.82;55.95
69245;BME280;56357;52.304;4.870;2023-11-25T01:46:24;101601.88;;;16.80;56.63
69245;BME280;56357;52.304;4.870;2023-11-25T01:48:56;101604.50;;;16.70;56.24
69245;BME280;56357;52.304;4.870;2023-11-25T01:51:23;101606.44;;;16.86;55.92
69245;BME280;56357;52.304;4.870;2023-11-25T01:53:50;101601.19;;;16.73;56.59
69245;BME280;56357;52.304;4.870;2023-11-25T01:56:17;101600.34;;;16.89;56.24
69245;BME280;56357;52.304;4.870;2023-11-25T01:58:44;101610.00;;;16.81;56.00
69245;BME280;56357;52.304;4.870;2023-11-25T02:01:11;101611.38;;;16.79;56.54
69245;BME280;56357;52.304;4.870;2023-11-25T02:03:37;101609.78;;;16.83;56.82
69245;BME280;56357;52.304;4.870;2023-11-25T02:06:05;101610.25;;;16.80;55.99
69245;BME280;56357;52.304;4.870;2023-11-25T02:08:31;101604.00;;;16.89;56.21
69245;BME280;56357;52.304;4.870;2023-11-25T02:10:58;101602.38;;;16.77;56.23
69245;BME280;56357;52.304;4.870;2023-11-25T02:13:25;101598.81;;;16.81;56.62
69245;BME280;56357;52.304;4.870;2023-11-25T02:15:52;101600.19;;;16.79;56.15
69245;BME280;56357;52.304;4.870;2023-11-25T02:18:19;101589.94;;;16.84;56.10
69245;BME280;56357;52.304;4.870;2023-11-25T02:20:47;101587.94;;;16.85;55.28
69245;BME280;56357;52.304;4.870;2023-11-25T02:23:19;101591.88;;;16.84;55.51
69245;BME280;56357;52.304;4.870;2023-11-25T02:25:48;101593.56;;;16.68;56.45
69245;BME280;56357;52.304;4.870;2023-11-25T02:28:18;101592.22;;;16.71;55.73
69245;BME280;56357;52.304;4.870;2023-11-25T02:30:48;101589.22;;;16.61;56.54
69245;BME280;56357;52.304;4.870;2023-11-25T02:33:15;101591.34;;;16.70;56.48
69245;BME280;56357;52.304;4.870;2023-11-25T02:35:42;101583.56;;;16.72;56.39
69245;BME280;56357;52.304;4.870;2023-11-25T02:38:12;101575.16;;;16.72;55.90
69245;BME280;56357;52.304;4.870;2023-11-25T02:40:40;101581.19;;;16.64;55.73
69245;BME280;56357;52.304;4.870;2023-11-25T02:43:08;101575.59;;;16.64;56.10
69245;BME280;56357;52.304;4.870;2023-11-25T02:45:36;101572.78;;;16.64;56.55
69245;BME280;56357;52.304;4.870;2023-11-25T02:48:04;101557.13;;;16.63;56.08
69245;BME280;56357;52.304;4.870;2023-11-25T02:50:31;101561.44;;;16.71;56.53
69245;BME280;56357;52.304;4.870;2023-11-25T02:52:58;101552.88;;;16.61;56.36
69245;BME280;56357;52.304;4.870;2023-11-25T02:55:24;101556.34;;;16.68;56.06
69245;BME280;56357;52.304;4.870;2023-11-25T02:57:51;101546.69;;;16.59;55.80
69245;BME280;56357;52.304;4.870;2023-11-25T03:00:18;101553.41;;;16.58;56.57
69245;BME280;56357;52.304;4.870;2023-11-25T03:02:54;101556.53;;;16.61;56.09
69245;BME280;56357;52.304;4.870;2023-11-25T03:05:29;101559.47;;;16.55;56.73
69245;BME280;56357;52.304;4.870;2023-11-25T03:07:57;101549.16;;;16.55;56.03
69245;BME280;56357;52.304;4.870;2023-11-25T03:10:23;101559.00;;;16.58;56.40
69245;BME280;56357;52.304;4.870;2023-11-25T03:12:50;101561.94;;;16.51;56.46
69245;BME280;56357;52.304;4.870;2023-11-25T03:15:17;101575.06;;;16.51;56.06
69245;BME280;56357;52.304;4.870;2023-11-25T03:17:43;101588.47;;;16.37;56.41
69245;BME280;56357;52.304;4.870;2023-11-25T03:20:11;101576.97;;;16.33;55.53
69245;BME280;56357;52.304;4.870;2023-11-25T03:22:38;101575.66;;;16.53;55.57
69245;BME280;56357;52.304;4.870;2023-11-25T03:25:05;101570.19;;;16.58;56.23
69245;BME280;56357;52.304;4.870;2023-11-25T03:27:32;101578.19;;;16.54;55.88
69245;BME280;56357;52.304;4.870;2023-11-25T03:30:00;101578.56;;;16.58;56.00
69245;BME280;56357;52.304;4.870;2023-11-25T03:32:27;101599.00;;;16.46;56.00
69245;BME280;56357;52.304;4.870;2023-11-25T03:34:54;101614.50;;;16.37;56.78
69245;BME280;56357;52.304;4.870;2023-11-25T03:37:21;101612.88;;;16.25;55.79
69245;BME280;56357;52.304;4.870;2023-11-25T03:39:47;101581.56;;;16.39;57.03
69245;BME280;56357;52.304;4.870;2023-11-25T03:42:15;101593.72;;;16.33;56.62
69245;BME280;56357;52.304;4.870;2023-11-25T03:44:45;101599.91;;;16.35;56.60
69245;BME280;56357;52.304;4.870;2023-11-25T03:47:12;101605.13;;;16.43;55.56
69245;BME280;56357;52.304;4.870;2023-11-25T03:49:39;101605.63;;;16.40;56.22
69245;BME280;56357;52.304;4.870;2023-11-25T03:52:05;101588.94;;;16.45;56.97
69245;BME280;56357;52.304;4.870;2023-11-25T03:54:32;101557.91;;;16.47;56.62
69245;BME280;56357;52.304;4.870;2023-11-25T03:56:59;101549.75;;;16.57;56.67
69245;BME280;56357;52.304;4.870;2023-11-25T03:59:25;101542.41;;;16.39;55.67
69245;BME280;56357;52.304;4.870;2023-11-25T04:01:52;101544.50;;;16.61;56.00
69245;BME280;56357;52.304;4.870;2023-11-25T04:04:18;101540.59;;;16.62;56.73
69245;BME280;56357;52.304;4.870;2023-11-25T04:06:47;101544.06;;;16.69;55.90
69245;BME280;56357;52.304;4.870;2023-11-25T04:09:13;101541.69;;;16.77;56.74
69245;BME280;56357;52.304;4.870;2023-11-25T04:11:42;101542.53;;;16.78;56.42
69245;BME280;56357;52.304;4.870;2023-11-25T04:14:09;101540.16;;;16.70;56.49
69245;BME280;56357;52.304;4.870;2023-11-25T04:16:35;101542.53;;;16.94;56.49
69245;BME280;56357;52.304;4.870;2023-11-25T04:19:02;101579.66;;;16.90;55.36
69245;BME280;56357;52.304;4.870;2023-11-25T04:21:29;101566.16;;;16.87;56.74
69245;BME280;56357;52.304;4.870;2023-11-25T04:23:56;101535.22;;;16.93;56.14
69245;BME280;56357;52.304;4.870;2023-11-25T04:26:23;101526.41;;;16.85;55.93
69245;BME280;56357;52.304;4.870;2023-11-25T04:28:50;101542.41;;;17.06;55.34
69245;BME280;56357;52.304;4.870;2023-11-25T04:31:16;101563.44;;;17.08;56.46
69245;BME280;56357;52.304;4.870;2023-11-25T04:33:43;101562.41;;;17.14;55.92
69245;BME280;56357;52.304;4.870;2023-11-25T04:36:09;101558.16;;;17.12;56.22
69245;BME280;56357;52.304;4.870;2023-11-25T04:38:35;101551.28;;;17.19;56.00
69245;BME280;56357;52.304;4.870;2023-11-25T04:41:02;101564.06;;;17.32;55.88
69245;BME280;56357;52.304;4.870;2023-11-25T04:43:29;101548.16;;;17.16;56.16
69245;BME280;56357;52.304;4.870;2023-11-25T04:45:55;101547.19;;;17.27;55.84
69245;BME280;56357;52.304;4.870;2023-11-25T04:48:22;101537.22;;;17.14;56.06
69245;BME280;56357;52.304;4.870;2023-11-25T04:50:49;101533.41;;;17.20;56.08
69245;BME280;56357;52.304;4.870;2023-11-25T04:53:15;101527.81;;;17.20;56.80
69245;BME280;56357;52.304;4.870;2023-11-25T04:55:42;101534.47;;;17.36;56.29
69245;BME280;56357;52.304;4.870;2023-11-25T04:58:09;101533.34;;;17.37;56.36
69245;BME280;56357;52.304;4.870;2023-11-25T05:00:35;101524.16;;;17.20;56.49
69245;BME280;56357;52.304;4.870;2023-11-25T05:03:01;101533.78;;;17.29;57.01
69245;BME280;56357;52.304;4.870;2023-11-25T05:05:30;101539.03;;;17.42;55.80
69245;BME280;56357;52.304;4.870;2023-11-25T05:07:57;101539.69;;;17.49;55.92
69245;BME280;56357;52.304;4.870;2023-11-25T05:10:23;101551.75;;;17.33;56.16
69245;BME280;56357;52.304;4.870;2023-11-25T05:12:50;101538.44;;;17.02;55.37
69245;BME280;56357;52.304;4.870;2023-11-25T05:15:17;101551.69;;;17.28;56.19
69245;BME280;56357;52.304;4.870;2023-11-25T05:17:43;101548.84;;;17.23;56.05
69245;BME280;56357;52.304;4.870;2023-11-25T05:20:10;101539.25;;;17.40;56.29
69245;BME280;56357;52.304;4.870;2023-11-25T05:22:40;101532.88;;;17.45;56.62
69245;BME280;56357;52.304;4.870;2023-11-25T05:25:07;101528.16;;;17.46;55.66
69245;BME280;56357;52.304;4.870;2023-11-25T05:27:35;101510.88;;;17.32;56.05
69245;BME280;56357;52.304;4.870;2023-11-25T05:30:02;101509.41;;;17.46;56.36
69245;BME280;56357;52.304;4.870;2023-11-25T05:32:30;101508.44;;;17.57;55.35
69245;BME280;56357;52.304;4.870;2023-11-25T05:34:57;101496.50;;;17.67;55.20
69245;BME280;56357;52.304;4.870;2023-11-25T05:37:23;101525.38;;;17.67;55.24
69245;BME280;56357;52.304;4.870;2023-11-25T05:39:50;101509.16;;;17.69;54.84
69245;BME280;56357;52.304;4.870;2023-11-25T05:42:16;101498.44;;;17.45;55.99
69245;BME280;56357;52.304;4.870;2023-11-25T05:44:49;101504.53;;;17.58;55.37
69245;BME280;56357;52.304;4.870;2023-11-25T05:47:16;101502.44;;;17.70;55.25
69245;BME280;56357;52.304;4.870;2023-11-25T05:49:42;101487.22;;;17.61;55.39
69245;BME280;56357;52.304;4.870;2023-11-25T05:52:09;101490.19;;;17.55;56.16
69245;BME280;56357;52.304;4.870;2023-11-25T05:54:36;101498.59;;;17.55;56.06
69245;BME280;56357;52.304;4.870;2023-11-25T05:57:02;101494.63;;;17.72;55.03
69245;BME280;56357;52.304;4.870;2023-11-25T05:59:28;101494.81;;;17.66;56.15
69245;BME280;56357;52.304;4.870;2023-11-25T06:01:55;101487.34;;;17.50;55.81
69245;BME280;56357;52.304;4.870;2023-11-25T06:04:21;101484.75;;;17.70;55.76
69245;BME280;56357;52.304;4.870;2023-11-25T06:06:48;101483.50;;;17.56;55.36
69245;BME280;56357;52.304;4.870;2023-11-25T06:09:15;101488.25;;;17.55;55.03
69245;BME280;56357;52.304;4.870;2023-11-25T06:11:41;101485.81;;;17.64;55.48
69245;BME280;56357;52.304;4.870;2023-11-25T06:14:08;101486.75;;;17.69;55.79
69245;BME280;56357;52.304;4.870;2023-11-25T06:16:37;101473.19;;;17.61;55.26
69245;BME280;56357;52.304;4.870;2023-11-25T06:19:06;101473.13;;;17.56;56.07
69245;BME280;56357;52.304;4.870;2023-11-25T06:21:33;101467.69;;;17.71;56.93
69245;BME280;56357;52.304;4.870;2023-11-25T06:23:59;101482.94;;;17.80;55.22
69245;BME280;56357;52.304;4.870;2023-11-25T06:26:29;101489.06;;;17.77;55.69
69245;BME280;56357;52.304;4.870;2023-11-25T06:28:55;101484.34;;;17.83;55.71
69245;BME280;56357;52.304;4.870;2023-11-25T06:31:22;101488.63;;;17.64;54.77
69245;BME280;56357;52.304;4.870;2023-11-25T06:33:48;101475.34;;;17.54;56.03
69245;BME280;56357;52.304;4.870;2023-11-25T06:36:15;101495.66;;;17.66;55.73
69245;BME280;56357;52.304;4.870;2023-11-25T06:38:41;101489.63;;;17.79;55.76
69245;BME280;56357;52.304;4.870;2023-11-25T06:41:09;101493.75;;;17.72;56.53
69245;BME280;56357;52.304;4.870;2023-11-25T06:43:37;101499.69;;;17.75;56.11
69245;BME280;56357;52.304;4.870;2023-11-25T06:46:04;101501.66;;;17.75;55.60
69245;BME280;56357;52.304;4.870;2023-11-25T06:48:30;101504.09;;;17.71;57.10
69245;BME280;56357;52.304;4.870;2023-11-25T06:50:58;101496.09;;;17.80;55.24
69245;BME280;56357;52.304;4.870;2023-11-25T06:53:25;101503.47;;;17.64;54.37
69245;BME280;56357;52.304;4.870;2023-11-25T06:55:51;101507.84;;;17.77;56.29
69245;BME280;56357;52.304;4.870;2023-11-25T06:58:18;101502.13;;;17.67;55.05
69245;BME280;56357;52.304;4.870;2023-11-25T07:00:44;101476.38;;;17.70;56.79
69245;BME280;56357;52.304;4.870;2023-11-25T07:03:11;101483.22;;;17.79;55.99
69245;BME280;56357;52.304;4.870;2023-11-25T07:05:38;101488.53;;;17.80;54.87
69245;BME280;56357;52.304;4.870;2023-11-25T07:08:04;101487.00;;;17.94;55.72
69245;BME280;56357;52.304;4.870;2023-11-25T07:10:31;101489.22;;;17.92;55.44
69245;BME280;56357;52.304;4.870;2023-11-25T07:13:01;101482.41;;;17.83;55.50
69245;BME280;56357;52.304;4.870;2023-11-25T07:15:27;101473.09;;;17.78;54.34
69245;BME280;56357;52.304;4.870;2023-11-25T07:17:54;101467.19;;;17.74;56.06
69245;BME280;56357;52.304;4.870;2023-11-25T07:20:21;101468.69;;;17.87;56.14
69245;BME280;56357;52.304;4.870;2023-11-25T07:22:47;101463.00;;;17.77;56.20
69245;BME280;56357;52.304;4.870;2023-11-25T07:25:14;101477.34;;;17.80;55.28
69245;BME280;56357;52.304;4.870;2023-11-25T07:27:41;101477.25;;;17.75;56.33
69245;BME280;56357;52.304;4.870;2023-11-25T07:30:10;101476.31;;;17.91;56.16
69245;BME280;56357;52.304;4.870;2023-11-25T07:32:36;101473.72;;;17.85;55.93
69245;BME280;56357;52.304;4.870;2023-11-25T07:35:07;101479.91;;;17.87;55.40
69245;BME280;56357;52.304;4.870;2023-11-25T07:37:34;101480.75;;;17.87;55.00
69245;BME280;56357;52.304;4.870;2023-11-25T07:40:02;101492.28;;;17.64;56.98
69245;BME280;56357;52.304;4.870;2023-11-25T07:42:30;101489.88;;;17.73;57.42
69245;BME280;56357;52.304;4.870;2023-11-25T07:45:04;101505.97;;;17.87;56.29
69245;BME280;56357;52.304;4.870;2023-11-25T07:47:33;101495.19;;;18.01;56.70
69245;BME280;56357;52.304;4.870;2023-11-25T07:50:00;101495.34;;;17.89;56.24
69245;BME280;56357;52.304;4.870;2023-11-25T07:52:26;101480.97;;;18.07;57.39
69245;BME280;56357;52.304;4.870;2023-11-25T07:54:53;101471.63;;;17.97;56.21
69245;BME280;56357;52.304;4.870;2023-11-25T07:57:20;101463.06;;;18.13;55.72
69245;BME280;56357;52.304;4.870;2023-11-25T07:59:46;101469.78;;;18.07;56.90
69245;BME280;56357;52.304;4.870;2023-11-25T08:02:13;101472.81;;;18.06;56.70
69245;BME280;56357;52.304;4.870;2023-11-25T08:04:39;101465.97;;;18.23;56.41
69245;BME280;56357;52.304;4.870;2023-11-25T08:07:06;101469.94;;;18.27;56.10
69245;BME280;56357;52.304;4.870;2023-11-25T08:09:33;101463.47;;;18.54;55.90
69245;BME280;56357;52.304;4.870;2023-11-25T08:11:59;101464.63;;;18.31;56.01
69245;BME280;56357;52.304;4.870;2023-11-25T08:14:25;101473.91;;;18.32;55.75
69245;BME280;56357;52.304;4.870;2023-11-25T08:16:52;101471.81;;;18.17;57.47
69245;BME280;56357;52.304;4.870;2023-11-25T08:19:18;101470.78;;;18.28;57.15
69245;BME280;56357;52.304;4.870;2023-11-25T08:21:48;101470.94;;;18.11;58.22
69245;BME280;56357;52.304;4.870;2023-11-25T08:24:15;101482.88;;;18.28;56.81
69245;BME280;56357;52.304;4.870;2023-11-25T08:26:43;101508.03;;;18.23;57.04
69245;BME280;56357;52.304;4.870;2023-11-25T08:29:10;101519.69;;;18.10;58.37
69245;BME280;56357;52.304;4.870;2023-11-25T08:31:37;101511.31;;;18.15;57.59
69245;BME280;56357;52.304;4.870;2023-11-25T08:34:04;101512.47;;;18.19;56.84
69245;BME280;56357;52.304;4.870;2023-11-25T08:36:36;101506.78;;;18.09;57.45
69245;BME280;56357;52.304;4.870;2023-11-25T08:39:12;101497.13;;;18.27;57.00
69245;BME280;56357;52.304;4.870;2023-11-25T08:41:40;101493.41;;;18.16;57.01
69245;BME280;56357;52.304;4.870;2023-11-25T08:44:08;101489.56;;;18.27;56.73
69245;BME280;56357;52.304;4.870;2023-11-25T08:46:38;101480.94;;;18.34;56.20
69245;BME280;56357;52.304;4.870;2023-11-25T08:49:05;101483.47;;;18.36;56.54
69245;BME280;56357;52.304;4.870;2023-11-25T08:51:32;101482.28;;;18.26;56.71
69245;BME280;56357;52.304;4.870;2023-11-25T08:53:58;101475.53;;;18.22;56.50
69245;BME280;56357;52.304;4.870;2023-11-25T08:56:25;101479.28;;;18.06;56.30
69245;BME280;56357;52.304;4.870;2023-11-25T08:58:56;101486.91;;;18.11;56.53
69245;BME280;56357;52.304;4.870;2023-11-25T09:01:22;101481.38;;;18.48;56.86
69245;BME280;56357;52.304;4.870;2023-11-25T09:03:51;101480.31;;;18.27;56.73
69245;BME280;56357;52.304;4.870;2023-11-25T09:06:18;101473.94;;;18.05;55.94
69245;BME280;56357;52.304;4.870;2023-11-25T09:08:44;101470.25;;;18.31;57.23
69245;BME280;56357;52.304;4.870;2023-11-25T09:11:10;101479.09;;;18.18;56.60
69245;BME280;56357;52.304;4.870;2023-11-25T09:13:37;101510.53;;;18.20;56.22
69245;BME280;56357;52.304;4.870;2023-11-25T09:16:04;101514.97;;;18.16;55.85
69245;BME280;56357;52.304;4.870;2023-11-25T09:18:30;101501.22;;;18.14;56.18
69245;BME280;56357;52.304;4.870;2023-11-25T09:20:57;101495.16;;;18.22;55.83
69245;BME280;56357;52.304;4.870;2023-11-25T09:23:23;101495.16;;;18.22;55.92
69245;BME280;56357;52.304;4.870;2023-11-25T09:25:49;101501.97;;;18.37;55.08
69245;BME280;56357;52.304;4.870;2023-11-25T09:28:16;101502.47;;;18.55;55.30
69245;BME280;56357;52.304;4.870;2023-11-25T09:30:43;101506.56;;;18.43;55.53
69245;BME280;56357;52.304;4.870;2023-11-25T09:33:10;101510.66;;;18.35;55.75
69245;BME280;56357;52.304;4.870;2023-11-25T09:35:36;101515.22;;;18.41;54.90
69245;BME280;56357;52.304;4.870;2023-11-25T09:38:02;101507.72;;;18.47;55.98
69245;BME280;56357;52.304;4.870;2023-11-25T09:40:29;101517.28;;;18.51;55.94
69245;BME280;56357;52.304;4.870;2023-11-25T09:42:55;101510.03;;;18.55;54.81
69245;BME280;56357;52.304;4.870;2023-11-25T09:45:23;101510.03;;;18.55;55.24
69245;BME280;56357;52.304;4.870;2023-11-25T09:47:54;101509.09;;;18.81;54.91
69245;BME280;56357;52.304;4.870;2023-11-25T09:50:20;101510.22;;;18.75;55.17
69245;BME280;56357;52.304;4.870;2023-11-25T09:52:52;101497.88;;;18.81;55.16
69245;BME280;56357;52.304;4.870;2023-11-25T09:55:20;101496.22;;;18.85;54.71
69245;BME280;56357;52.304;4.870;2023-11-25T09:57:50;101495.53;;;18.63;56.06
69245;BME280;56357;52.304;4.870;2023-11-25T10:00:17;101500.84;;;19.01;54.88
69245;BME280;56357;52.304;4.870;2023-11-25T10:02:51;101506.16;;;18.97;56.15
69245;BME280;56357;52.304;4.870;2023-11-25T10:05:18;101514.91;;;19.06;56.77
69245;BME280;56357;52.304;4.870;2023-11-25T10:07:44;101518.28;;;19.08;55.54
69245;BME280;56357;52.304;4.870;2023-11-25T10:10:11;101518.66;;;18.80;55.38
69245;BME280;56357;52.304;4.870;2023-11-25T10:12:41;101515.75;;;19.06;55.47
69245;BME280;56357;52.304;4.870;2023-11-25T10:15:09;101518.28;;;19.08;56.09
69245;BME280;56357;52.304;4.870;2023-11-25T10:17:36;101508.91;;;18.92;55.73
69245;BME280;56357;52.304;4.870;2023-11-25T10:20:12;101536.59;;;18.79;55.96
69245;BME280;56357;52.304;4.870;2023-11-25T10:22:52;101507.16;;;18.81;56.46
69245;BME280;56357;52.304;4.870;2023-11-25T10:25:21;101507.09;;;19.13;56.38
69245;BME280;56357;52.304;4.870;2023-11-25T10:27:49;101516.41;;;18.77;55.91
69245;BME280;56357;52.304;4.870;2023-11-25T10:30:16;101526.28;;;18.53;56.31
69245;BME280;56357;52.304;4.870;2023-11-25T10:32:42;101537.22;;;18.54;55.63
69245;BME280;56357;52.304;4.870;2023-11-25T10:35:09;101529.28;;;19.14;54.97
69245;BME280;56357;52.304;4.870;2023-11-25T10:37:39;101502.69;;;18.85;55.09
69245;BME280;56357;52.304;4.870;2023-11-25T10:40:10;101509.34;;;19.68;53.83
69245;BME280;56357;52.304;4.870;2023-11-25T10:42:40;101521.59;;;20.24;52.31
69245;BME280;56357;52.304;4.870;2023-11-25T10:45:18;101540.50;;;20.73;50.99
69245;BME280;56357;52.304;4.870;2023-11-25T10:47:48;101543.59;;;20.62;51.33
69245;BME280;56357;52.304;4.870;2023-11-25T10:50:15;101530.06;;;20.94;49.86
69245;BME280;56357;52.304;4.870;2023-11-25T10:52:43;101513.19;;;21.04;49.92
69245;BME280;56357;52.304;4.870;2023-11-25T10:55:10;101509.50;;;20.98;50.25
69245;BME280;56357;52.304;4.870;2023-11-25T10:57:36;101508.63;;;21.13;49.53
69245;BME280;56357;52.304;4.870;2023-11-25T11:00:03;101505.00;;;20.92;50.12
69245;BME280;56357;52.304;4.870;2023-11-25T11:02:56;101510.06;;;21.16;49.73
69245;BME280;56357;52.304;4.870;2023-11-25T11:05:45;101513.13;;;21.34;49.39
69245;BME280;56357;52.304;4.870;2023-11-25T11:08:21;101510.91;;;21.16;49.61
69245;BME280;56357;52.304;4.870;2023-11-25T11:10:56;101485.88;;;21.05;50.00
69245;BME280;56357;52.304;4.870;2023-11-25T11:13:31;101494.25;;;21.25;49.61
69245;BME280;56357;52.304;4.870;2023-11-25T11:16:25;101493.44;;;21.14;49.93
69245;BME280;56357;52.304;4.870;2023-11-25T11:18:50;101497.28;;;21.48;49.35
69245;BME280;56357;52.304;4.870;2023-11-25T11:21:19;101497.34;;;21.23;49.69
69245;BME280;56357;52.304;4.870;2023-11-25T11:23:48;101499.97;;;21.73;48.47
69245;BME280;56357;52.304;4.870;2023-11-25T11:26:29;101492.53;;;21.34;49.52
69245;BME280;56357;52.304;4.870;2023-11-25T11:34:12;101475.53;;;21.59;48.70
69245;BME280;56357;52.304;4.870;2023-11-25T11:36:39;101479.16;;;21.59;48.80
69245;BME280;56357;52.304;4.870;2023-11-25T11:39:06;101480.91;;;21.55;48.75
69245;BME280;56357;52.304;4.870;2023-11-25T11:41:36;101488.97;;;21.82;48.26
69245;BME280;56357;52.304;4.870;2023-11-25T11:44:05;101474.97;;;21.52;48.82
69245;BME280;56357;52.304;4.870;2023-11-25T11:46:38;101474.59;;;21.83;48.27
69245;BME280;56357;52.304;4.870;2023-11-25T11:49:06;101471.22;;;21.71;48.60
69245;BME280;56357;52.304;4.870;2023-11-25T11:51:34;101464.97;;;21.16;48.64
69245;BME280;56357;52.304;4.870;2023-11-25T11:57:05;101463.50;;;19.57;54.18
69245;BME280;56357;52.304;4.870;2023-11-25T11:59:59;101479.28;;;19.73;53.34
69245;BME280;56357;52.304;4.870;2023-11-25T12:02:29;101487.66;;;19.58;54.84
69245;BME280;56357;52.304;4.870;2023-11-25T12:05:00;101505.75;;;19.26;55.11
69245;BME280;56357;52.304;4.870;2023-11-25T12:07:27;101510.16;;;19.11;55.66
69245;BME280;56357;52.304;4.870;2023-11-25T12:09:55;101514.97;;;19.21;54.66
69245;BME280;56357;52.304;4.870;2023-11-25T12:12:23;101507.56;;;19.00;55.89
69245;BME280;56357;52.304;4.870;2023-11-25T12:14:50;101476.00;;;19.30;55.11
69245;BME280;56357;52.304;4.870;2023-11-25T12:17:16;101478.16;;;19.12;55.36
69245;BME280;56357;52.304;4.870;2023-11-25T12:19:43;101472.53;;;19.12;55.99
69245;BME280;56357;52.304;4.870;2023-11-25T12:22:10;101470.31;;;19.14;56.12
69245;BME280;56357;52.304;4.870;2023-11-25T12:24:41;101469.63;;;19.39;55.93
69245;BME280;56357;52.304;4.870;2023-11-25T12:27:10;101476.16;;;19.08;55.71
69245;BME280;56357;52.304;4.870;2023-11-25T12:29:37;101467.56;;;19.30;55.38
69245;BME280;56357;52.304;4.870;2023-11-25T12:32:03;101472.91;;;19.26;54.83
69245;BME280;56357;52.304;4.870;2023-11-25T12:34:30;101479.31;;;19.22;55.90
69245;BME280;56357;52.304;4.870;2023-11-25T12:36:57;101478.16;;;19.12;55.50
69245;BME280;56357;52.304;4.870;2023-11-25T12:39:25;101467.22;;;19.16;55.30
69245;BME280;56357;52.304;4.870;2023-11-25T12:41:52;101479.53;;;19.10;55.64
69245;BME280;56357;52.304;4.870;2023-11-25T12:44:19;101477.88;;;19.09;55.15
69245;BME280;56357;52.304;4.870;2023-11-25T12:47:04;101471.63;;;19.02;55.07
69245;BME280;56357;52.304;4.870;2023-11-25T12:49:32;101469.81;;;19.23;55.78
69245;BME280;56357;52.304;4.870;2023-11-25T12:51:59;101477.94;;;19.19;54.92
69245;BME280;56357;52.304;4.870;2023-11-25T12:54:42;101473.06;;;19.09;55.94
69245;BME280;56357;52.304;4.870;2023-11-25T12:57:09;101474.44;;;19.02;55.43
69245;BME280;56357;52.304;4.870;2023-11-25T12:59:36;101468.78;;;18.92;55.81
69245;BME280;56357;52.304;4.870;2023-11-25T13:02:08;101482.53;;;18.93;55.19